createdAt,value
2019-02-17T00:00:31.191Z,37.17
2019-02-17T00:02:59.652Z,40.70
2019-02-17T00:05:28.104Z,35.23
2019-02-17T00:07:56.591Z,35.83
2019-02-17T00:10:25.056Z,38.67
2019-02-17T00:12:53.528Z,33.90
2019-02-17T00:15:47.113Z,36.50
2019-02-17T00:18:15.575Z,35.70
2019-02-17T00:20:44.109Z,34.73
2019-02-17T00:23:12.604Z,38.00
2019-02-17T00:25:41.094Z,36.40
2019-02-17T00:28:09.558Z,34.97
2019-02-17T00:30:38.074Z,32.03
2019-02-17T00:33:06.628Z,31.57
2019-02-17T00:35:35.093Z,33.43
2019-02-17T00:38:03.606Z,31.07
2019-02-17T00:40:32.061Z,32.23
2019-02-17T00:43:00.460Z,30.03
2019-02-17T00:45:29.119Z,29.63
2019-02-17T00:47:57.519Z,31.47
2019-02-17T00:50:25.957Z,31.53
2019-02-17T00:52:54.407Z,34.60
2019-02-17T00:55:22.856Z,34.20
2019-02-17T00:57:51.295Z,34.97
2019-02-17T01:00:19.868Z,27.10
2019-02-17T01:02:49.218Z,28.00
2019-02-17T01:05:17.660Z,34.90
2019-02-17T01:07:46.152Z,28.80
2019-02-17T01:10:14.621Z,33.57
2019-02-17T01:12:43.224Z,32.53
2019-02-17T01:15:11.659Z,31.17
2019-02-17T01:17:40.115Z,32.60
2019-02-17T01:20:08.616Z,29.37
2019-02-17T01:22:37.111Z,33.43
2019-02-17T01:25:05.660Z,33.87
2019-02-17T01:27:34.105Z,32.97
2019-02-17T01:30:02.592Z,32.97
2019-02-17T01:32:31.071Z,30.97
2019-02-17T01:34:59.551Z,29.40
2019-02-17T01:37:28.018Z,29.83
2019-02-17T01:39:56.604Z,33.03
2019-02-17T01:42:25.104Z,30.60
2019-02-17T01:44:53.937Z,33.47
2019-02-17T01:47:22.486Z,33.93
2019-02-17T01:49:50.945Z,31.27
2019-02-17T01:52:19.469Z,31.17
2019-02-17T01:54:47.923Z,29.03
2019-02-17T01:57:16.312Z,31.53
2019-02-17T01:59:44.788Z,29.77
2019-02-17T02:02:13.296Z,29.07
2019-02-17T02:04:42.665Z,30.53
2019-02-17T02:07:11.152Z,28.17
2019-02-17T02:09:39.783Z,31.10
2019-02-17T02:12:08.268Z,28.87
2019-02-17T02:14:36.745Z,27.37
2019-02-17T02:17:05.204Z,29.27
2019-02-17T02:19:33.668Z,25.40
2019-02-17T02:22:02.198Z,26.70
2019-02-17T02:24:30.669Z,28.30
2019-02-17T02:26:59.187Z,23.67
2019-02-17T02:29:27.695Z,26.57
2019-02-17T02:31:56.186Z,28.80
2019-02-17T02:34:24.565Z,25.57
2019-02-17T02:36:53.057Z,28.33
2019-02-17T02:39:21.540Z,29.07
2019-02-17T02:41:50.003Z,24.10
2019-02-17T02:44:18.517Z,23.80
2019-02-17T02:46:46.983Z,30.83
2019-02-17T02:49:15.364Z,25.57
2019-02-17T02:51:43.872Z,30.10
2019-02-17T02:54:12.335Z,30.57
2019-02-17T02:56:40.704Z,28.63
2019-02-17T02:59:09.122Z,27.77
2019-02-17T03:01:37.496Z,26.17
2019-02-17T03:04:05.874Z,27.97
2019-02-17T03:06:59.614Z,27.63
2019-02-17T03:09:28.147Z,28.90
2019-02-17T03:11:56.599Z,28.43
2019-02-17T03:14:25.004Z,24.80
2019-02-17T03:16:53.455Z,27.97
2019-02-17T03:19:21.909Z,29.27
2019-02-17T03:21:50.368Z,24.63
2019-02-17T03:24:18.755Z,30.87
2019-02-17T03:26:47.207Z,26.30
2019-02-17T03:29:15.716Z,26.67
2019-02-17T03:31:44.105Z,27.47
2019-02-17T03:34:12.473Z,23.90
2019-02-17T03:36:40.984Z,26.93
2019-02-17T03:39:09.384Z,23.73
2019-02-17T03:41:37.836Z,24.90
2019-02-17T03:44:06.321Z,25.37
2019-02-17T03:46:34.763Z,26.83
2019-02-17T03:49:03.298Z,29.07
2019-02-17T03:51:31.807Z,26.33
2019-02-17T03:54:00.268Z,25.50
2019-02-17T03:56:28.633Z,24.47
2019-02-17T03:58:57.131Z,28.77
2019-02-17T04:01:25.584Z,25.73
2019-02-17T04:03:54.047Z,27.93
2019-02-17T04:06:22.524Z,29.73
2019-02-17T04:08:51.005Z,30.33
2019-02-17T04:11:19.455Z,24.47
2019-02-17T04:13:47.880Z,27.57
2019-02-17T04:16:16.332Z,30.00
2019-02-17T04:18:44.804Z,26.13
2019-02-17T04:21:13.270Z,25.73
2019-02-17T04:23:41.654Z,29.63
2019-02-17T04:26:10.040Z,27.07
2019-02-17T04:28:38.473Z,25.90
2019-02-17T04:31:06.902Z,26.03
2019-02-17T04:33:35.276Z,25.37
2019-02-17T04:36:03.777Z,28.23
2019-02-17T04:38:32.292Z,26.60
2019-02-17T04:41:00.672Z,28.37
2019-02-17T04:43:29.073Z,26.03
2019-02-17T04:45:57.521Z,28.63
2019-02-17T04:48:26.002Z,28.40
2019-02-17T04:50:54.512Z,28.63
2019-02-17T04:53:22.953Z,30.20
2019-02-17T04:55:51.387Z,26.40
2019-02-17T04:58:19.928Z,30.17
2019-02-17T05:00:50.071Z,30.90
2019-02-17T05:03:18.851Z,27.17
2019-02-17T05:05:47.330Z,31.37
2019-02-17T05:08:15.801Z,27.73
2019-02-17T05:10:44.337Z,30.10
2019-02-17T05:13:12.886Z,30.30
2019-02-17T05:15:41.257Z,28.00
2019-02-17T05:18:09.705Z,30.47
2019-02-17T05:20:38.112Z,26.63
2019-02-17T05:23:06.585Z,32.90
2019-02-17T05:25:35.053Z,27.73
2019-02-17T05:28:03.527Z,27.87
2019-02-17T05:30:31.971Z,29.17
2019-02-17T05:33:00.425Z,28.00
2019-02-17T05:35:28.857Z,28.30
2019-02-17T05:37:57.375Z,28.67
2019-02-17T05:40:25.827Z,30.07
2019-02-17T05:42:54.311Z,26.03
2019-02-17T05:45:22.694Z,25.77
2019-02-17T05:47:51.065Z,29.47
2019-02-17T05:50:19.555Z,31.50
2019-02-17T05:52:47.917Z,27.20
2019-02-17T05:55:16.303Z,28.27
2019-02-17T05:57:45.468Z,27.27
2019-02-17T06:00:14.650Z,27.07
2019-02-17T06:02:43.041Z,27.27
2019-02-17T06:05:11.540Z,29.57
2019-02-17T06:07:39.913Z,31.00
2019-02-17T06:10:08.480Z,25.93
2019-02-17T06:12:37.098Z,31.03
2019-02-17T06:15:05.880Z,29.53
2019-02-17T06:17:34.325Z,30.23
2019-02-17T06:20:02.784Z,28.10
2019-02-17T06:22:31.316Z,28.40
2019-02-17T06:24:59.884Z,30.63
2019-02-17T06:27:28.403Z,30.60
2019-02-17T06:29:56.783Z,27.53
2019-02-17T06:32:25.181Z,28.57
2019-02-17T06:34:54.049Z,28.10
2019-02-17T06:37:22.433Z,32.40
2019-02-17T06:39:50.815Z,29.87
2019-02-17T06:42:19.252Z,28.93
2019-02-17T06:44:47.612Z,31.07
2019-02-17T06:47:20.396Z,30.13
2019-02-17T06:49:48.939Z,32.07
2019-02-17T06:52:17.473Z,33.50
2019-02-17T06:54:50.208Z,33.27
2019-02-17T06:57:25.862Z,29.43
2019-02-17T07:00:10.435Z,32.97
2019-02-17T07:02:39.717Z,32.43
2019-02-17T07:05:14.847Z,27.23
2019-02-17T07:07:43.400Z,33.73
2019-02-17T07:10:11.869Z,29.57
2019-02-17T07:12:42.536Z,30.80
2019-02-17T07:15:11.684Z,29.90
2019-02-17T07:17:40.196Z,31.90
2019-02-17T07:20:09.785Z,29.57
2019-02-17T07:22:38.451Z,27.57
2019-02-17T07:25:07.075Z,36.30
2019-02-17T07:27:35.615Z,28.20
2019-02-17T07:30:04.808Z,30.67
2019-02-17T07:32:33.333Z,26.07
2019-02-17T07:35:01.908Z,28.90
2019-02-17T07:37:33.522Z,29.60
2019-02-17T07:40:01.098Z,25.33
2019-02-17T07:42:31.105Z,30.03
2019-02-17T07:44:59.611Z,29.13
2019-02-17T07:47:28.062Z,28.10
2019-02-17T07:49:56.541Z,24.13
2019-02-17T07:52:26.181Z,30.53
2019-02-17T07:54:54.684Z,26.00
2019-02-17T07:57:23.197Z,26.77
2019-02-17T07:59:51.785Z,27.27
2019-02-17T08:02:20.605Z,24.03
2019-02-17T08:04:49.133Z,27.57
2019-02-17T08:07:17.759Z,25.60
2019-02-17T08:09:46.420Z,30.60
2019-02-17T08:12:14.929Z,27.30
2019-02-17T08:14:43.404Z,27.30
2019-02-17T08:17:11.884Z,30.80
2019-02-17T08:19:40.345Z,30.87
2019-02-17T08:22:09.011Z,29.27
2019-02-17T08:24:37.405Z,25.53
2019-02-17T08:27:05.868Z,28.20
2019-02-17T08:29:34.374Z,28.83
2019-02-17T08:32:02.959Z,27.20
2019-02-17T08:34:31.330Z,28.50
2019-02-17T08:36:59.760Z,28.37
2019-02-17T08:39:28.218Z,24.97
2019-02-17T08:41:56.760Z,28.27
2019-02-17T08:44:25.237Z,27.53
2019-02-17T08:46:53.764Z,28.30
2019-02-17T08:49:22.428Z,28.80
2019-02-17T08:51:51.012Z,25.07
2019-02-17T08:54:19.492Z,27.40
2019-02-17T08:56:47.973Z,28.67
2019-02-17T08:59:16.580Z,27.87
2019-02-17T09:01:45.142Z,26.83
2019-02-17T09:04:13.544Z,27.63
2019-02-17T09:06:42.064Z,26.37
2019-02-17T09:09:10.629Z,28.03
2019-02-17T09:11:39.179Z,30.00
2019-02-17T09:14:07.785Z,27.57
2019-02-17T09:16:36.473Z,28.90
2019-02-17T09:19:05.081Z,28.63
2019-02-17T09:21:33.628Z,24.73
2019-02-17T09:24:02.201Z,30.70
2019-02-17T09:26:30.608Z,29.73
2019-02-17T09:28:59.179Z,28.20
2019-02-17T09:31:27.633Z,27.03
2019-02-17T09:33:56.199Z,28.43
2019-02-17T09:36:24.788Z,26.13
2019-02-17T09:38:53.167Z,28.20
2019-02-17T09:41:21.600Z,27.37
2019-02-17T09:43:50.105Z,27.37
2019-02-17T09:46:18.694Z,30.43
2019-02-17T09:48:47.252Z,29.23
2019-02-17T09:51:15.805Z,27.40
2019-02-17T09:53:44.310Z,26.20
2019-02-17T09:56:12.700Z,24.60
2019-02-17T09:58:41.253Z,27.97
2019-02-17T10:01:09.792Z,24.67
2019-02-17T10:03:38.294Z,27.53
2019-02-17T10:06:07.960Z,28.87
2019-02-17T10:08:36.826Z,27.63
2019-02-17T10:11:05.260Z,28.73
2019-02-17T10:13:33.846Z,30.73
2019-02-17T10:16:02.428Z,30.33
2019-02-17T10:18:30.884Z,31.60
2019-02-17T10:20:59.413Z,27.33
2019-02-17T10:23:27.991Z,26.43
2019-02-17T10:25:56.728Z,29.27
2019-02-17T10:28:25.277Z,26.90
2019-02-17T10:30:53.785Z,26.00
2019-02-17T10:33:22.421Z,26.67
2019-02-17T10:35:50.986Z,26.03
2019-02-17T10:38:19.516Z,29.87
2019-02-17T10:40:48.078Z,25.27
2019-02-17T10:43:16.483Z,28.53
2019-02-17T10:45:44.973Z,27.17
2019-02-17T10:48:13.462Z,30.33
2019-02-17T10:50:41.968Z,25.47
2019-02-17T10:53:10.416Z,27.43
2019-02-17T10:55:38.937Z,27.63
2019-02-17T10:58:07.364Z,27.33
2019-02-17T11:00:35.853Z,27.47
2019-02-17T11:03:05.832Z,27.37
2019-02-17T11:05:34.364Z,24.70
2019-02-17T11:08:02.994Z,31.23
2019-02-17T11:10:31.886Z,27.70
2019-02-17T11:13:00.316Z,28.03
2019-02-17T11:15:28.777Z,26.57
2019-02-17T11:17:57.471Z,25.00
2019-02-17T11:20:26.030Z,26.20
2019-02-17T11:22:54.651Z,27.03
2019-02-17T11:25:23.248Z,26.17
2019-02-17T11:27:53.449Z,28.50
2019-02-17T11:30:22.054Z,28.50
2019-02-17T11:32:57.496Z,27.37
2019-02-17T11:35:20.825Z,26.77
2019-02-17T11:37:49.461Z,23.17
2019-02-17T11:40:18.414Z,26.77
2019-02-17T11:42:47.152Z,22.27
2019-02-17T11:45:16.527Z,22.70
2019-02-17T11:47:45.147Z,21.87
2019-02-17T11:50:15.646Z,20.23
2019-02-17T11:52:46.087Z,21.87
2019-02-17T11:55:17.248Z,22.37
2019-02-17T11:57:47.915Z,21.80
2019-02-17T12:00:17.464Z,17.40
2019-02-17T12:02:46.501Z,19.40
2019-02-17T12:05:15.268Z,18.27
2019-02-17T12:07:50.595Z,21.37
2019-02-17T12:10:19.147Z,24.43
2019-02-17T12:12:48.142Z,20.73
2019-02-17T12:15:16.880Z,21.53
2019-02-17T12:17:45.630Z,21.97
2019-02-17T12:20:36.441Z,19.83
2019-02-17T12:23:09.364Z,20.03
2019-02-17T12:26:03.432Z,17.27
2019-02-17T12:28:46.213Z,19.50
2019-02-17T12:31:20.550Z,18.77
2019-02-17T12:33:49.076Z,20.30
2019-02-17T12:36:17.527Z,18.23
2019-02-17T12:38:46.132Z,17.63
2019-02-17T12:41:14.813Z,20.10
2019-02-17T12:43:43.354Z,17.63
2019-02-17T12:46:11.879Z,17.90
2019-02-17T12:48:40.326Z,19.57
2019-02-17T12:51:08.825Z,16.83
2019-02-17T12:53:37.445Z,20.63
2019-02-17T12:59:28.503Z,17.67
2019-02-17T13:01:57.074Z,20.63
2019-02-17T13:04:25.953Z,17.70
2019-02-17T13:06:55.725Z,17.60
2019-02-17T13:09:24.228Z,17.20
2019-02-17T13:11:52.780Z,18.27
2019-02-17T13:14:21.315Z,19.83
2019-02-17T13:16:49.945Z,15.83
2019-02-17T13:19:18.456Z,16.30
2019-02-17T13:21:47.014Z,14.67
2019-02-17T13:24:15.661Z,16.07
2019-02-17T13:26:44.124Z,13.30
2019-02-17T13:29:12.672Z,17.60
2019-02-17T13:31:41.165Z,14.20
2019-02-17T13:34:09.620Z,15.47
2019-02-17T13:36:38.232Z,13.70
2019-02-17T13:39:06.998Z,14.30
2019-02-17T13:41:35.472Z,13.30
2019-02-17T13:44:04.123Z,12.30
2019-02-17T13:46:32.489Z,13.33
2019-02-17T13:49:07.212Z,14.13
2019-02-17T13:51:35.709Z,13.90
2019-02-17T13:54:04.283Z,12.57
2019-02-17T13:56:32.864Z,13.40
2019-02-17T13:59:01.348Z,13.40
2019-02-17T14:01:29.721Z,14.47
2019-02-17T14:04:07.556Z,12.40
2019-02-17T14:06:35.981Z,12.53
2019-02-17T14:09:05.298Z,10.70
2019-02-17T14:11:33.787Z,10.90
2019-02-17T14:14:02.259Z,16.23
2019-02-17T14:16:30.758Z,13.43
2019-02-17T14:18:59.348Z,13.20
2019-02-17T14:21:27.994Z,12.73
2019-02-17T14:23:56.508Z,11.43
2019-02-17T14:26:25.148Z,13.77
2019-02-17T14:28:53.709Z,12.53
2019-02-17T14:31:22.264Z,12.60
2019-02-17T14:33:58.275Z,14.30
2019-02-17T14:36:21.212Z,15.97
2019-02-17T14:38:50.799Z,13.13
2019-02-17T14:41:19.356Z,11.73
2019-02-17T14:43:48.923Z,13.43
2019-02-17T14:49:52.284Z,10.17
2019-02-17T14:52:21.099Z,10.37
2019-02-17T14:54:49.697Z,11.87
2019-02-17T14:57:18.203Z,10.20
2019-02-17T14:59:47.016Z,13.50
2019-02-17T15:02:15.702Z,12.80
2019-02-17T15:04:44.303Z,12.17
2019-02-17T15:07:12.840Z,11.83
2019-02-17T15:09:41.559Z,13.50
2019-02-17T15:12:12.326Z,9.93
2019-02-17T15:14:40.894Z,10.03
2019-02-17T15:17:09.460Z,15.10
2019-02-17T15:19:37.842Z,15.33
2019-02-17T15:22:06.434Z,11.33
2019-02-17T15:24:34.898Z,11.60
2019-02-17T15:27:03.513Z,11.50
2019-02-17T15:29:32.052Z,10.73
2019-02-17T15:32:00.585Z,12.83
2019-02-17T15:34:30.029Z,9.30
2019-02-17T15:36:58.726Z,10.67
2019-02-17T15:39:27.219Z,9.70
2019-02-17T15:41:55.700Z,10.57
2019-02-17T15:44:24.224Z,10.83
2019-02-17T15:46:54.041Z,10.13
2019-02-17T15:49:23.601Z,10.10
2019-02-17T15:51:57.313Z,10.87
2019-02-17T15:54:25.721Z,8.93
2019-02-17T15:56:56.352Z,7.97
2019-02-17T15:59:25.127Z,8.30
2019-02-17T16:01:55.564Z,9.13
2019-02-17T16:04:28.466Z,8.67
2019-02-17T16:06:54.435Z,10.67
2019-02-17T16:09:23.181Z,9.23
2019-02-17T16:11:54.829Z,11.53
2019-02-17T16:14:27.948Z,10.73
2019-02-17T16:16:58.515Z,8.10
2019-02-17T16:19:27.119Z,8.93
2019-02-17T16:21:55.758Z,9.23
2019-02-17T16:24:24.208Z,8.33
2019-02-17T16:26:53.012Z,8.07
2019-02-17T16:29:21.391Z,9.23
2019-02-17T16:31:49.835Z,10.83
2019-02-17T16:34:18.304Z,7.50
2019-02-17T16:36:46.867Z,9.03
2019-02-17T16:39:15.564Z,10.13
2019-02-17T16:42:03.166Z,8.27
2019-02-17T16:44:32.386Z,8.77
2019-02-17T16:47:01.201Z,11.90
2019-02-17T16:49:29.709Z,11.07
2019-02-17T16:52:01.314Z,9.80
2019-02-17T16:54:31.114Z,8.43
2019-02-17T17:00:37.218Z,10.77
2019-02-17T17:03:05.727Z,11.43
2019-02-17T17:05:34.531Z,9.17
2019-02-17T17:08:03.026Z,10.93
2019-02-17T17:10:32.607Z,13.40
2019-02-17T17:13:01.217Z,13.67
2019-02-17T17:15:33.424Z,14.33
2019-02-17T17:18:01.998Z,12.63
2019-02-17T17:20:34.118Z,13.03
2019-02-17T17:23:05.297Z,11.13
2019-02-17T17:25:33.870Z,11.63
2019-02-17T17:28:02.412Z,9.90
2019-02-17T17:30:34.242Z,12.20
2019-02-17T17:33:02.711Z,12.75
2019-02-17T17:35:31.321Z,11.50
2019-02-17T17:38:00.083Z,11.47
2019-02-17T17:40:28.700Z,11.80
2019-02-17T17:42:57.147Z,14.47
2019-02-17T17:45:25.693Z,13.80
2019-02-17T17:47:54.929Z,16.80
2019-02-17T17:50:23.378Z,14.97
2019-02-17T17:52:52.033Z,13.30
2019-02-17T17:55:21.404Z,15.03
2019-02-17T17:57:52.117Z,14.93
2019-02-17T18:00:22.155Z,46.97
2019-02-17T18:02:50.761Z,16.73
2019-02-17T18:05:19.723Z,14.60
2019-02-17T18:07:48.296Z,11.00
2019-02-17T18:10:18.185Z,13.03
2019-02-17T18:12:46.888Z,12.53
2019-02-17T18:15:15.707Z,13.60
2019-02-17T18:17:53.453Z,12.63
2019-02-17T18:20:14.461Z,12.77
2019-02-17T18:22:42.997Z,13.13
2019-02-17T18:25:11.601Z,13.00
2019-02-17T18:27:40.269Z,10.67
2019-02-17T18:30:09.382Z,11.67
2019-02-17T18:32:37.978Z,13.20
2019-02-17T18:35:06.653Z,11.93
2019-02-17T18:37:35.301Z,11.83
2019-02-17T18:40:04.115Z,12.13
2019-02-17T18:42:33.030Z,12.73
2019-02-17T18:45:05.928Z,13.17
2019-02-17T18:47:36.543Z,12.70
2019-02-17T18:50:06.608Z,12.97
2019-02-17T18:52:39.366Z,11.93
2019-02-17T18:55:08.740Z,15.70
2019-02-17T18:57:37.261Z,20.97
2019-02-17T19:00:06.356Z,12.23
2019-02-17T19:02:34.994Z,10.93
2019-02-17T19:05:03.761Z,13.77
2019-02-17T19:07:32.306Z,14.83
2019-02-17T19:10:00.929Z,10.83
2019-02-17T19:12:29.473Z,12.20
2019-02-17T19:14:58.018Z,11.47
2019-02-17T19:17:26.660Z,17.77
2019-02-17T19:19:55.227Z,14.53
2019-02-17T19:22:25.836Z,13.00
2019-02-17T19:24:54.575Z,15.93
2019-02-17T19:27:23.230Z,14.80
2019-02-17T19:29:51.744Z,11.17
2019-02-17T19:32:20.284Z,51.28
2019-02-17T19:34:48.745Z,44.60
2019-02-17T19:37:17.299Z,74.90
2019-02-17T19:39:45.744Z,37.43
2019-02-17T19:42:17.135Z,30.75
2019-02-17T19:44:45.682Z,34.83
2019-02-17T19:47:14.271Z,28.60
2019-02-17T19:49:42.855Z,21.97
2019-02-17T19:52:12.777Z,19.37
2019-02-17T19:54:41.761Z,19.80
2019-02-17T19:57:10.322Z,14.63
2019-02-17T19:59:38.744Z,20.93
2019-02-17T20:02:07.377Z,15.03
2019-02-17T20:04:42.340Z,12.77
2019-02-17T20:07:11.900Z,13.00
2019-02-17T20:09:43.923Z,16.17
2019-02-17T20:12:12.556Z,16.53
2019-02-17T20:14:41.382Z,16.80
2019-02-17T20:17:11.017Z,16.27
2019-02-17T20:19:40.604Z,13.73
2019-02-17T20:22:09.291Z,16.70
2019-02-17T20:24:37.773Z,14.13
2019-02-17T20:27:33.017Z,17.43
2019-02-17T20:30:05.473Z,32.90
2019-02-17T20:32:35.041Z,30.97
2019-02-17T20:35:04.116Z,29.23
2019-02-17T20:37:32.672Z,19.53
2019-02-17T20:40:01.313Z,20.23
2019-02-17T20:42:29.931Z,16.33
2019-02-17T20:44:58.397Z,16.50
2019-02-17T20:47:26.833Z,15.77
2019-02-17T20:49:55.428Z,19.67
2019-02-17T20:52:24.032Z,18.97
2019-02-17T20:54:52.581Z,18.33
2019-02-17T20:57:22.412Z,20.47
2019-02-17T20:59:50.948Z,16.00
2019-02-17T21:02:19.489Z,14.03
2019-02-17T21:04:47.935Z,16.77
2019-02-17T21:07:16.912Z,19.60
2019-02-17T21:09:45.584Z,13.63
2019-02-17T21:12:14.154Z,18.47
2019-02-17T21:14:42.979Z,19.10
2019-02-17T21:17:11.554Z,17.80
2019-02-17T21:19:40.036Z,18.70
2019-02-17T21:22:08.724Z,16.10
2019-02-17T21:24:37.345Z,19.70
2019-02-17T21:27:06.137Z,15.17
2019-02-17T21:29:35.686Z,15.73
2019-02-17T21:32:04.236Z,15.30
2019-02-17T21:34:32.749Z,14.53
2019-02-17T21:37:01.439Z,15.40
2019-02-17T21:39:29.948Z,14.77
2019-02-17T21:41:58.557Z,15.27
2019-02-17T21:44:27.136Z,15.30
2019-02-17T21:46:55.610Z,14.27
2019-02-17T21:49:24.161Z,16.20
2019-02-17T21:51:52.804Z,14.00
2019-02-17T21:54:21.276Z,13.03
2019-02-17T21:56:49.837Z,15.20
2019-02-17T21:59:18.330Z,15.33
2019-02-17T22:01:46.832Z,14.77
2019-02-17T22:04:15.268Z,17.53
2019-02-17T22:06:43.892Z,16.50
2019-02-17T22:09:12.347Z,13.77
2019-02-17T22:11:40.845Z,13.07
2019-02-17T22:14:09.436Z,13.07
2019-02-17T22:16:37.904Z,12.87
2019-02-17T22:19:06.389Z,13.50
2019-02-17T22:21:35.404Z,16.60
2019-02-17T22:24:03.980Z,14.57
2019-02-17T22:26:32.447Z,12.40
2019-02-17T22:29:01.115Z,11.97
2019-02-17T22:31:29.629Z,14.63
2019-02-17T22:33:58.086Z,12.00
2019-02-17T22:36:26.624Z,12.77
2019-02-17T22:38:55.155Z,12.90
2019-02-17T22:41:23.691Z,14.07
2019-02-17T22:43:52.248Z,13.70
2019-02-17T22:46:20.728Z,11.87
2019-02-17T22:48:49.334Z,15.33
2019-02-17T22:51:17.931Z,15.93
2019-02-17T22:53:46.534Z,14.43
2019-02-17T22:56:15.170Z,13.13
2019-02-17T22:58:43.735Z,12.40
2019-02-17T23:01:16.658Z,11.83
2019-02-17T23:03:45.139Z,11.53
2019-02-17T23:06:13.692Z,12.73
2019-02-17T23:08:42.315Z,13.67
2019-02-17T23:11:10.988Z,16.10
2019-02-17T23:13:39.542Z,12.20
2019-02-17T23:16:08.056Z,11.00
2019-02-17T23:18:36.584Z,11.17
2019-02-17T23:21:05.163Z,11.67
2019-02-17T23:23:33.770Z,11.17
2019-02-17T23:26:02.328Z,13.17
2019-02-17T23:28:30.915Z,13.93
2019-02-17T23:30:59.480Z,15.53
2019-02-17T23:33:28.004Z,12.70
2019-02-17T23:36:06.210Z,12.07
2019-02-17T23:38:34.777Z,11.57
2019-02-17T23:41:03.380Z,13.40
2019-02-17T23:43:32.121Z,12.97
2019-02-17T23:46:00.655Z,13.13
2019-02-17T23:48:29.293Z,15.17
2019-02-17T23:50:57.787Z,12.33
2019-02-17T23:53:26.317Z,15.27
2019-02-17T23:55:54.847Z,13.47
2019-02-17T23:58:23.432Z,12.90
